createdAt,value
2019-04-27T00:00:15.280Z,98924.45
2019-04-27T00:03:02.161Z,98921.46
2019-04-27T00:05:43.407Z,98919.91
2019-04-27T00:08:48.397Z,98906.20
2019-04-27T00:11:25.089Z,98917.03
2019-04-27T00:13:58.746Z,98917.53
2019-04-27T00:16:50.474Z,98922.04
2019-04-27T00:19:43.863Z,98926.86
2019-04-27T00:22:35.893Z,98923.09
2019-04-27T00:25:09.994Z,98926.05
2019-04-27T00:27:43.674Z,98934.52
2019-04-27T00:30:18.436Z,98928.19
2019-04-27T00:32:53.523Z,98926.50
2019-04-27T00:35:40.162Z,98926.86
2019-04-27T00:38:47.256Z,98916.19
2019-04-27T00:41:20.762Z,98907.73
2019-04-27T00:43:53.873Z,98902.33
2019-04-27T00:46:27.356Z,98897.47
2019-04-27T00:49:01.343Z,98908.23
2019-04-27T00:51:34.932Z,98911.53
2019-04-27T00:54:08.109Z,98907.09
2019-04-27T00:56:59.852Z,98906.19
2019-04-27T01:00:05.152Z,98908.80
2019-04-27T01:02:53.637Z,98916.52
2019-04-27T01:05:28.188Z,98916.65
2019-04-27T01:08:03.686Z,98907.44
2019-04-27T01:10:36.936Z,98909.14
2019-04-27T01:13:10.046Z,98918.89
2019-04-27T01:15:43.485Z,98912.98
2019-04-27T01:18:16.748Z,98905.36
2019-04-27T01:20:50.505Z,98908.42
2019-04-27T01:23:23.572Z,98917.72
2019-04-27T01:26:14.847Z,98915.11
2019-04-27T01:29:00.515Z,98901.19
2019-04-27T01:31:34.160Z,98904.44
2019-04-27T01:34:09.067Z,98903.77
2019-04-27T01:36:42.573Z,98901.17
2019-04-27T01:39:18.842Z,98904.43
2019-04-27T01:41:52.328Z,98905.17
2019-04-27T01:44:26.030Z,98914.41
2019-04-27T01:47:00.965Z,98918.34
2019-04-27T01:49:34.871Z,98915.91
2019-04-27T01:52:09.624Z,98922.25
2019-04-27T01:54:43.361Z,98928.17
2019-04-27T01:57:16.556Z,98920.34
2019-04-27T01:59:49.288Z,98902.16
2019-04-27T02:02:41.466Z,98905.94
2019-04-27T02:05:30.274Z,98913.92
2019-04-27T02:08:04.249Z,98913.06
2019-04-27T02:10:39.414Z,98914.35
2019-04-27T02:13:12.608Z,98905.77
2019-04-27T02:15:46.191Z,98907.46
2019-04-27T02:18:19.511Z,98906.83
2019-04-27T02:20:52.803Z,98904.33
2019-04-27T02:23:26.117Z,98906.94
2019-04-27T02:25:59.481Z,98899.03
2019-04-27T02:28:55.260Z,98903.44
2019-04-27T02:31:46.319Z,98901.34
2019-04-27T02:34:22.905Z,98888.66
2019-04-27T02:36:55.927Z,98900.30
2019-04-27T02:39:29.789Z,98897.03
2019-04-27T02:42:03.328Z,98899.17
2019-04-27T02:44:40.431Z,98900.23
2019-04-27T02:47:13.906Z,98903.09
2019-04-27T02:49:50.376Z,98906.83
2019-04-27T02:52:32.387Z,98896.63
2019-04-27T02:55:06.445Z,98903.38
2019-04-27T02:57:41.161Z,98894.84
2019-04-27T03:00:14.705Z,98893.96
2019-04-27T03:02:52.497Z,98890.16
2019-04-27T03:05:34.768Z,98886.00
2019-04-27T03:08:10.210Z,98888.47
2019-04-27T03:10:43.071Z,98868.08
2019-04-27T03:13:41.394Z,98880.37
2019-04-27T03:16:33.462Z,98864.53
2019-04-27T03:19:43.448Z,98875.70
2019-04-27T03:22:39.799Z,98869.86
2019-04-27T03:25:32.701Z,98863.80
2019-04-27T03:28:14.188Z,98855.53
2019-04-27T03:30:51.432Z,98856.37
2019-04-27T03:33:22.886Z,98869.67
2019-04-27T03:35:56.362Z,98869.75
2019-04-27T03:38:30.216Z,98867.59
2019-04-27T03:41:03.873Z,98871.70
2019-04-27T03:43:36.954Z,98874.48
2019-04-27T03:46:10.663Z,98871.80
2019-04-27T03:48:44.966Z,98873.11
2019-04-27T03:51:37.101Z,98879.98
2019-04-27T03:54:29.643Z,98882.60
2019-04-27T03:57:19.913Z,98870.41
2019-04-27T04:00:00.096Z,98872.55
2019-04-27T04:02:33.796Z,98866.23
2019-04-27T04:05:09.800Z,98875.08
2019-04-27T04:07:47.062Z,98875.92
2019-04-27T04:10:21.521Z,98877.20
2019-04-27T04:13:03.681Z,98881.84
2019-04-27T04:15:44.352Z,98878.08
2019-04-27T04:18:19.629Z,98881.59
2019-04-27T04:20:52.797Z,98877.47
2019-04-27T04:23:25.687Z,98876.73
2019-04-27T04:25:59.734Z,98870.55
2019-04-27T04:28:33.392Z,98876.83
2019-04-27T04:31:10.842Z,98893.20
2019-04-27T04:33:42.100Z,98901.09
2019-04-27T04:36:15.326Z,98894.19
2019-04-27T04:38:50.431Z,98890.16
2019-04-27T04:41:35.187Z,98892.66
2019-04-27T04:44:30.001Z,98891.92
2019-04-27T04:47:30.618Z,98895.19
2019-04-27T04:50:11.373Z,98907.16
2019-04-27T04:52:42.346Z,98916.13
2019-04-27T04:55:15.238Z,98921.86
2019-04-27T04:57:49.339Z,98928.30
2019-04-27T05:00:23.244Z,98922.59
2019-04-27T05:02:56.966Z,98926.02
2019-04-27T05:05:30.483Z,98922.92
2019-04-27T05:08:05.185Z,98920.84
2019-04-27T05:10:39.532Z,98915.20
2019-04-27T05:13:13.318Z,98924.13
2019-04-27T05:15:48.668Z,98929.61
2019-04-27T05:18:22.431Z,98940.75
2019-04-27T05:21:03.837Z,98946.88
2019-04-27T05:23:38.795Z,98946.17
2019-04-27T05:26:11.611Z,98940.27
2019-04-27T05:28:49.076Z,98943.98
2019-04-27T05:31:23.447Z,98952.59
2019-04-27T05:33:59.344Z,98955.02
2019-04-27T05:36:32.786Z,98951.39
2019-04-27T05:39:09.593Z,98961.66
2019-04-27T05:41:43.111Z,98955.53
2019-04-27T05:44:45.671Z,98961.00
2019-04-27T05:47:22.240Z,98964.09
2019-04-27T05:50:18.385Z,98959.83
2019-04-27T05:52:49.761Z,98968.66
2019-04-27T05:55:31.642Z,98973.16
2019-04-27T05:58:05.518Z,98964.25
2019-04-27T06:00:39.421Z,98963.56
2019-04-27T06:03:15.473Z,98967.52
2019-04-27T06:05:48.962Z,98966.23
2019-04-27T06:08:23.597Z,98965.27
2019-04-27T06:10:56.911Z,98973.13
2019-04-27T06:13:30.992Z,98971.11
2019-04-27T06:16:04.588Z,98973.84
2019-04-27T06:18:39.128Z,98975.86
2019-04-27T06:21:12.792Z,98968.48
2019-04-27T06:23:46.538Z,98970.98
2019-04-27T06:26:24.649Z,98979.31
2019-04-27T06:28:59.515Z,98972.28
2019-04-27T06:31:34.434Z,98966.91
2019-04-27T06:34:09.841Z,98971.63
2019-04-27T06:36:45.358Z,98971.20
2019-04-27T06:39:20.650Z,98969.63
2019-04-27T06:41:55.685Z,98962.66
2019-04-27T06:44:32.037Z,98969.64
2019-04-27T06:47:05.958Z,98967.16
2019-04-27T06:49:43.573Z,98970.48
2019-04-27T06:52:18.690Z,98971.45
2019-04-27T06:54:52.824Z,98980.11
2019-04-27T06:57:26.986Z,98977.00
2019-04-27T07:00:00.652Z,98982.60
2019-04-27T07:02:34.017Z,98978.73
2019-04-27T07:05:08.929Z,98979.19
2019-04-27T07:07:43.164Z,98979.64
2019-04-27T07:10:18.551Z,98983.12
2019-04-27T07:12:54.520Z,98980.90
2019-04-27T07:15:28.764Z,98977.34
2019-04-27T07:18:04.080Z,98985.56
2019-04-27T07:20:38.869Z,98978.41
2019-04-27T07:23:13.937Z,98986.26
2019-04-27T07:25:48.777Z,98982.25
2019-04-27T07:28:22.948Z,98982.05
2019-04-27T07:30:59.518Z,98984.93
2019-04-27T07:33:32.959Z,98988.11
2019-04-27T07:36:06.325Z,98991.78
2019-04-27T07:38:45.658Z,98984.98
2019-04-27T07:41:20.826Z,98997.11
2019-04-27T07:44:01.523Z,98992.91
2019-04-27T07:46:35.632Z,98989.82
2019-04-27T07:49:09.603Z,98989.38
2019-04-27T07:51:44.092Z,98991.38
2019-04-27T07:54:18.987Z,98995.80
2019-04-27T07:56:53.128Z,98990.07
2019-04-27T07:59:27.358Z,98993.33
2019-04-27T08:02:00.534Z,98996.34
2019-04-27T08:04:33.770Z,98994.94
2019-04-27T08:07:09.035Z,98991.89
2019-04-27T08:09:42.727Z,98997.17
2019-04-27T08:12:16.504Z,98996.15
2019-04-27T08:14:50.057Z,98993.50
2019-04-27T08:17:23.408Z,98993.64
2019-04-27T08:19:59.358Z,98997.06
2019-04-27T08:22:34.914Z,98995.16
2019-04-27T08:25:09.528Z,99002.75
2019-04-27T08:28:14.272Z,98999.62
2019-04-27T08:31:10.868Z,98996.63
2019-04-27T08:33:48.669Z,98992.98
2019-04-27T08:36:22.730Z,99001.59
2019-04-27T08:38:56.494Z,98995.44
2019-04-27T08:41:30.722Z,98993.59
2019-04-27T08:44:04.359Z,98999.19
2019-04-27T08:46:38.577Z,99008.90
2019-04-27T08:49:18.504Z,99000.16
2019-04-27T08:51:59.240Z,99000.31
2019-04-27T08:54:30.160Z,99005.10
2019-04-27T08:57:04.382Z,99003.86
2019-04-27T08:59:39.280Z,99006.61
2019-04-27T09:02:13.635Z,99007.48
2019-04-27T09:04:49.332Z,99004.62
2019-04-27T09:07:41.339Z,99008.38
2019-04-27T09:10:23.373Z,99002.64
2019-04-27T09:13:16.184Z,98998.38
2019-04-27T09:16:12.716Z,99000.39
2019-04-27T09:18:46.832Z,98998.04
2019-04-27T09:21:20.277Z,98994.83
2019-04-27T09:23:53.838Z,99000.81
2019-04-27T09:26:29.006Z,99002.06
2019-04-27T09:29:03.675Z,98997.42
2019-04-27T09:31:37.327Z,99003.55
2019-04-27T09:34:12.769Z,99000.39
2019-04-27T09:36:47.030Z,98996.03
2019-04-27T09:39:20.849Z,98999.20
2019-04-27T09:41:57.187Z,98996.00
2019-04-27T09:44:31.562Z,98995.39
2019-04-27T09:47:06.137Z,98997.80
2019-04-27T09:49:40.382Z,99000.55
2019-04-27T09:52:24.376Z,99003.41
2019-04-27T09:54:51.244Z,99004.08
2019-04-27T09:57:26.019Z,98998.12
2019-04-27T09:59:59.738Z,99001.94
2019-04-27T10:02:33.662Z,98999.33
2019-04-27T10:05:09.357Z,98995.33
2019-04-27T10:07:42.659Z,98996.61
2019-04-27T10:10:16.834Z,99003.59
2019-04-27T10:12:50.642Z,99001.28
2019-04-27T10:15:24.329Z,98989.17
2019-04-27T10:17:58.525Z,98997.36
2019-04-27T10:20:31.960Z,98997.02
2019-04-27T10:23:06.236Z,98990.00
2019-04-27T10:25:40.833Z,98986.56
2019-04-27T10:28:14.820Z,98989.16
2019-04-27T10:30:48.052Z,98979.81
2019-04-27T10:33:22.391Z,98988.97
2019-04-27T10:35:56.533Z,98986.55
2019-04-27T10:38:30.922Z,98984.83
2019-04-27T10:41:05.940Z,98987.30
2019-04-27T10:43:40.310Z,98980.58
2019-04-27T10:46:15.673Z,98973.09
2019-04-27T10:48:49.559Z,98973.81
2019-04-27T10:51:22.899Z,98975.85
2019-04-27T10:53:58.988Z,98979.37
2019-04-27T10:56:35.940Z,98971.39
2019-04-27T10:59:11.105Z,98970.48
2019-04-27T11:01:45.950Z,98980.20
2019-04-27T11:04:47.717Z,98967.32
2019-04-27T11:07:23.195Z,98971.31
2019-04-27T11:09:57.597Z,98970.16
2019-04-27T11:12:32.684Z,98966.92
2019-04-27T11:15:08.568Z,98968.05
2019-04-27T11:17:45.971Z,98966.86
2019-04-27T11:20:20.995Z,98965.98
2019-04-27T11:23:06.571Z,98958.41
2019-04-27T11:25:32.281Z,98961.52
2019-04-27T11:28:07.311Z,98959.89
2019-04-27T11:30:41.133Z,98960.80
2019-04-27T11:33:16.169Z,98957.53
2019-04-27T11:35:59.419Z,98954.88
2019-04-27T11:38:34.265Z,98955.69
2019-04-27T11:41:08.521Z,98958.47
2019-04-27T11:43:44.007Z,98948.20
2019-04-27T11:46:18.149Z,98947.93
2019-04-27T11:48:53.146Z,98943.98
2019-04-27T11:51:27.708Z,98945.03
2019-04-27T11:54:02.388Z,98947.28
2019-04-27T11:56:38.152Z,98944.03
2019-04-27T11:59:13.537Z,98944.71
2019-04-27T12:01:48.980Z,98935.67
2019-04-27T12:04:29.348Z,98930.49
2019-04-27T12:07:03.000Z,98944.59
2019-04-27T12:09:38.295Z,98936.75
2019-04-27T12:12:15.964Z,98931.28
2019-04-27T12:14:53.592Z,98915.43
2019-04-27T12:17:29.605Z,98915.41
2019-04-27T12:20:04.571Z,98913.69
2019-04-27T12:22:38.460Z,98917.67
2019-04-27T12:25:16.020Z,98913.92
2019-04-27T12:28:07.548Z,98916.63
2019-04-27T12:31:02.291Z,98914.25
2019-04-27T12:33:38.076Z,98905.44
2019-04-27T12:36:13.608Z,98907.01
2019-04-27T12:38:46.910Z,98906.59
2019-04-27T12:41:20.757Z,98910.89
2019-04-27T12:43:56.036Z,98911.01
2019-04-27T12:46:30.485Z,98904.45
2019-04-27T12:49:05.950Z,98895.87
2019-04-27T12:51:42.291Z,98899.52
2019-04-27T12:54:31.751Z,98888.92
2019-04-27T12:57:23.473Z,98888.42
2019-04-27T13:00:24.255Z,98884.94
2019-04-27T13:02:59.616Z,98877.44
2019-04-27T13:05:35.898Z,98868.05
2019-04-27T13:08:09.814Z,98871.00
2019-04-27T13:10:44.202Z,98872.11
2019-04-27T13:13:18.181Z,98869.18
2019-04-27T13:15:51.708Z,98869.81
2019-04-27T13:18:25.869Z,98873.64
2019-04-27T13:20:59.987Z,98865.33
2019-04-27T13:23:34.970Z,98864.98
2019-04-27T13:26:09.138Z,98867.06
2019-04-27T13:28:44.310Z,98853.92
2019-04-27T13:31:20.427Z,98862.06
2019-04-27T13:33:55.783Z,98857.27
2019-04-27T13:36:29.867Z,98856.02
2019-04-27T13:39:06.461Z,98841.48
2019-04-27T13:41:41.577Z,98847.45
2019-04-27T13:44:19.187Z,98851.11
2019-04-27T13:47:10.444Z,98841.22
2019-04-27T13:50:00.843Z,98839.20
2019-04-27T13:52:37.438Z,98837.78
2019-04-27T13:55:11.395Z,98842.75
2019-04-27T13:57:50.495Z,98834.78
2019-04-27T14:00:21.881Z,98831.04
2019-04-27T14:02:56.565Z,98831.15
2019-04-27T14:05:30.675Z,98834.28
2019-04-27T14:08:05.841Z,98837.70
2019-04-27T14:10:40.383Z,98831.78
2019-04-27T14:13:19.770Z,98831.99
2019-04-27T14:15:54.511Z,98824.72
2019-04-27T14:18:29.560Z,98826.83
2019-04-27T14:21:04.423Z,98814.86
2019-04-27T14:23:38.692Z,98816.94
2019-04-27T14:26:16.249Z,98813.28
2019-04-27T14:28:49.989Z,98811.59
2019-04-27T14:31:24.147Z,98807.34
2019-04-27T14:33:59.025Z,98806.80
2019-04-27T14:36:33.330Z,98810.42
2019-04-27T14:39:10.462Z,98802.51
2019-04-27T14:41:44.430Z,98800.74
2019-04-27T14:44:25.760Z,98791.11
2019-04-27T14:46:59.817Z,98783.88
2019-04-27T14:49:33.699Z,98776.12
2019-04-27T14:52:12.518Z,98783.17
2019-04-27T14:54:50.214Z,98788.71
2019-04-27T14:57:22.788Z,98791.00
2019-04-27T14:59:58.357Z,98785.59
2019-04-27T15:02:31.688Z,98780.69
2019-04-27T15:05:05.684Z,98783.68
2019-04-27T15:07:39.968Z,98782.88
2019-04-27T15:10:16.180Z,98781.28
2019-04-27T15:12:50.970Z,98781.44
2019-04-27T15:15:28.368Z,98781.14
2019-04-27T15:18:05.197Z,98779.16
2019-04-27T15:20:43.766Z,98783.66
2019-04-27T15:23:17.156Z,98786.44
2019-04-27T15:25:51.250Z,98785.95
2019-04-27T15:28:29.146Z,98784.14
2019-04-27T15:31:26.121Z,98787.44
2019-04-27T15:34:23.402Z,98790.42
2019-04-27T15:37:09.678Z,98786.30
2019-04-27T15:40:08.375Z,98769.89
2019-04-27T15:42:58.147Z,98774.17
2019-04-27T15:45:32.649Z,98778.64
2019-04-27T15:48:10.900Z,98780.61
2019-04-27T15:50:44.864Z,98773.34
2019-04-27T15:53:18.871Z,98770.83
2019-04-27T15:55:53.614Z,98772.50
2019-04-27T15:58:29.305Z,98772.67
2019-04-27T16:01:09.110Z,98777.30
2019-04-27T16:03:41.290Z,98780.26
2019-04-27T16:06:15.593Z,98786.17
2019-04-27T16:08:50.827Z,98786.84
2019-04-27T16:11:24.520Z,98786.89
2019-04-27T16:14:03.006Z,98774.58
2019-04-27T16:16:38.140Z,98772.03
2019-04-27T16:19:12.581Z,98773.11
2019-04-27T16:21:53.512Z,98774.55
2019-04-27T16:24:23.020Z,98773.75
2019-04-27T16:27:02.900Z,98773.20
2019-04-27T16:29:38.963Z,98771.16
2019-04-27T16:32:13.155Z,98774.94
2019-04-27T16:34:54.053Z,98769.86
2019-04-27T16:37:56.248Z,98782.08
2019-04-27T16:40:31.978Z,98777.16
2019-04-27T16:43:06.381Z,98777.09
2019-04-27T16:45:44.053Z,98773.44
2019-04-27T16:48:18.523Z,98772.41
2019-04-27T16:50:55.193Z,98775.55
2019-04-27T16:53:30.206Z,98774.16
2019-04-27T16:56:14.824Z,98782.46
2019-04-27T16:58:56.454Z,98783.08
2019-04-27T17:01:30.456Z,98785.91
2019-04-27T17:04:06.340Z,98788.56
2019-04-27T17:06:46.156Z,98786.56
2019-04-27T17:09:18.955Z,98789.00
2019-04-27T17:11:53.185Z,98790.95
2019-04-27T17:14:51.073Z,98797.10
2019-04-27T17:17:51.059Z,98790.50
2019-04-27T17:20:25.535Z,98801.69
2019-04-27T17:22:59.878Z,98802.86
2019-04-27T17:25:39.766Z,98809.14
2019-04-27T17:28:14.474Z,98813.23
2019-04-27T17:30:48.993Z,98811.03
2019-04-27T17:33:30.237Z,98811.17
2019-04-27T17:36:04.219Z,98814.09
2019-04-27T17:38:38.567Z,98819.61
2019-04-27T17:41:13.261Z,98819.34
2019-04-27T17:43:48.152Z,98822.83
2019-04-27T17:46:22.934Z,98818.34
2019-04-27T17:48:58.541Z,98819.44
2019-04-27T17:51:35.163Z,98818.61
2019-04-27T17:54:11.440Z,98819.22
2019-04-27T17:56:49.425Z,98825.08
2019-04-27T17:59:21.347Z,98829.55
2019-04-27T18:02:01.338Z,98831.27
2019-04-27T18:04:37.164Z,98842.59
2019-04-27T18:07:12.295Z,98843.91
2019-04-27T18:09:48.219Z,98842.95
2019-04-27T18:12:25.505Z,98845.88
2019-04-27T18:14:59.683Z,98849.47
2019-04-27T18:17:49.945Z,98861.11
2019-04-27T18:20:25.175Z,98860.81
2019-04-27T18:23:10.670Z,98863.84
2019-04-27T18:25:49.243Z,98874.98
2019-04-27T18:28:31.832Z,98876.92
2019-04-27T18:31:16.094Z,98871.22
2019-04-27T18:33:48.962Z,98871.80
2019-04-27T18:36:32.435Z,98872.37
2019-04-27T18:39:10.459Z,98879.13
2019-04-27T18:41:49.430Z,98881.65
2019-04-27T18:44:28.056Z,98890.81
2019-04-27T18:47:02.487Z,98892.07
2019-04-27T18:50:07.379Z,98895.98
2019-04-27T18:52:47.287Z,98900.07
2019-04-27T18:55:20.627Z,98905.19
2019-04-27T18:57:54.712Z,98898.31
2019-04-27T19:00:29.575Z,98906.00
2019-04-27T19:03:06.111Z,98906.44
2019-04-27T19:05:40.711Z,98905.34
2019-04-27T19:08:17.790Z,98903.55
2019-04-27T19:10:55.264Z,98910.31
2019-04-27T19:13:30.470Z,98908.15
2019-04-27T19:16:05.813Z,98907.52
2019-04-27T19:18:40.658Z,98907.84
2019-04-27T19:21:20.921Z,98908.23
2019-04-27T19:24:15.032Z,98911.15
2019-04-27T19:27:17.911Z,98913.33
2019-04-27T19:29:50.025Z,98916.36
2019-04-27T19:32:25.411Z,98922.34
2019-04-27T19:35:02.038Z,98926.23
2019-04-27T19:37:36.019Z,98932.17
2019-04-27T19:40:11.167Z,98926.95
2019-04-27T19:42:45.140Z,98932.81
2019-04-27T19:45:35.085Z,98935.04
2019-04-27T19:48:18.178Z,98933.49
2019-04-27T19:50:56.907Z,98940.63
2019-04-27T19:53:52.075Z,98946.45
2019-04-27T19:56:31.557Z,98941.20
2019-04-27T19:59:18.811Z,98947.06
2019-04-27T20:01:58.906Z,98946.02
2019-04-27T20:04:42.978Z,98949.48
2019-04-27T20:07:38.053Z,98945.45
2019-04-27T20:10:32.210Z,98943.33
2019-04-27T20:13:07.836Z,98945.48
2019-04-27T20:15:45.467Z,98941.44
2019-04-27T20:18:25.107Z,98942.17
2019-04-27T20:21:05.800Z,98950.75
2019-04-27T20:23:55.210Z,98943.88
2019-04-27T20:26:42.031Z,98945.81
2019-04-27T20:29:18.038Z,98945.09
2019-04-27T20:31:58.247Z,98948.43
2019-04-27T20:34:36.238Z,98937.59
2019-04-27T20:37:31.391Z,98941.61
2019-04-27T20:40:12.887Z,98940.56
2019-04-27T20:43:27.361Z,98937.33
2019-04-27T20:46:05.841Z,98935.80
2019-04-27T20:48:46.400Z,98943.66
2019-04-27T20:51:43.891Z,98939.03
2019-04-27T20:54:30.630Z,98936.89
2019-04-27T20:57:15.700Z,98937.72
2019-04-27T20:59:54.597Z,98935.23
2019-04-27T21:02:57.508Z,98923.77
2019-04-27T21:05:46.593Z,98932.61
2019-04-27T21:08:27.069Z,98941.67
2019-04-27T21:11:09.235Z,98947.60
2019-04-27T21:14:11.076Z,98950.70
2019-04-27T21:16:51.886Z,98939.03
2019-04-27T21:19:27.602Z,98933.07
2019-04-27T21:22:16.268Z,98942.81
2019-04-27T21:24:51.545Z,98933.41
2019-04-27T21:27:32.373Z,98929.95
2019-04-27T21:30:11.251Z,98927.23
2019-04-27T21:33:01.206Z,98931.41
2019-04-27T21:35:39.439Z,98939.50
2019-04-27T21:38:18.563Z,98935.06
2019-04-27T21:40:56.803Z,98943.28
2019-04-27T21:43:45.758Z,98942.94
2019-04-27T21:46:31.617Z,98942.56
2019-04-27T21:49:15.513Z,98937.73
2019-04-27T21:52:14.699Z,98926.96
2019-04-27T21:54:55.002Z,98931.45
2019-04-27T21:57:32.928Z,98933.34
2019-04-27T22:00:28.662Z,98933.21
2019-04-27T22:03:12.306Z,98928.50
2019-04-27T22:05:52.190Z,98927.31
2019-04-27T22:08:38.102Z,98929.42
2019-04-27T22:11:18.577Z,98920.70
2019-04-27T22:13:58.978Z,98923.97
2019-04-27T22:16:36.688Z,98921.45
2019-04-27T22:19:22.357Z,98923.06
2019-04-27T22:22:05.896Z,98922.38
2019-04-27T22:24:44.159Z,98931.15
2019-04-27T22:27:23.073Z,98935.05
2019-04-27T22:30:06.195Z,98930.16
2019-04-27T22:32:51.505Z,98930.59
2019-04-27T22:35:33.839Z,98930.62
2019-04-27T22:38:21.273Z,98929.25
2019-04-27T22:41:13.010Z,98927.03
2019-04-27T22:44:18.436Z,98924.34
2019-04-27T22:47:13.303Z,98923.91
2019-04-27T22:49:55.451Z,98912.78
2019-04-27T22:52:34.197Z,98912.17
2019-04-27T22:55:11.781Z,98914.33
2019-04-27T22:57:56.350Z,98913.25
2019-04-27T23:00:52.177Z,98911.30
2019-04-27T23:03:34.168Z,98908.66
2019-04-27T23:06:11.660Z,98902.61
2019-04-27T23:08:51.492Z,98908.53
2019-04-27T23:11:38.678Z,98903.88
2019-04-27T23:14:37.373Z,98905.66
2019-04-27T23:17:31.539Z,98900.23
2019-04-27T23:20:11.609Z,98896.51
2019-04-27T23:22:55.005Z,98893.05
2019-04-27T23:25:31.582Z,98895.05
2019-04-27T23:28:14.896Z,98888.02
2019-04-27T23:31:06.808Z,98889.41
2019-04-27T23:33:46.888Z,98881.11
2019-04-27T23:36:26.010Z,98872.51
2019-04-27T23:39:06.104Z,98863.67
2019-04-27T23:41:45.418Z,98863.94
2019-04-27T23:44:36.752Z,98864.40
2019-04-27T23:47:19.963Z,98863.41
2019-04-27T23:50:03.854Z,98864.45
2019-04-27T23:53:08.841Z,98861.53
2019-04-27T23:55:52.665Z,98867.03
2019-04-27T23:58:31.745Z,98861.47
